createdAt,value
2018-07-23T00:01:21.955Z,4.60
2018-07-23T00:03:26.369Z,5.13
2018-07-23T00:05:31.070Z,5.83
2018-07-23T00:07:35.633Z,5.60
2018-07-23T00:09:39.670Z,5.17
2018-07-23T00:11:43.689Z,6.27
2018-07-23T00:13:47.637Z,5.50
2018-07-23T00:15:51.921Z,5.37
2018-07-23T00:17:56.522Z,6.70
2018-07-23T00:20:01.138Z,6.60
2018-07-23T00:22:05.109Z,6.43
2018-07-23T00:24:09.409Z,6.03
2018-07-23T00:26:13.409Z,6.10
2018-07-23T00:28:17.649Z,6.30
2018-07-23T00:30:21.622Z,6.67
2018-07-23T00:32:26.173Z,7.10
2018-07-23T00:34:30.397Z,6.70
2018-07-23T00:36:34.728Z,7.17
2018-07-23T00:38:39.021Z,7.57
2018-07-23T00:40:43.312Z,6.40
2018-07-23T00:42:47.701Z,7.20
2018-07-23T00:44:51.984Z,6.40
2018-07-23T00:46:56.589Z,7.87
2018-07-23T00:49:00.933Z,7.10
2018-07-23T00:51:05.181Z,7.93
2018-07-23T00:53:09.402Z,8.67
2018-07-23T00:55:13.721Z,9.53
2018-07-23T00:57:18.039Z,7.70
2018-07-23T00:59:22.325Z,8.60
2018-07-23T01:01:26.608Z,7.90
2018-07-23T01:03:30.912Z,7.97
2018-07-23T01:05:37.589Z,8.30
2018-07-23T01:07:41.557Z,9.50
2018-07-23T01:09:45.842Z,8.27
2018-07-23T01:11:49.866Z,8.00
2018-07-23T01:13:54.078Z,7.73
2018-07-23T01:15:58.662Z,9.53
2018-07-23T01:18:02.897Z,8.57
2018-07-23T01:20:07.356Z,9.73
2018-07-23T01:22:11.579Z,9.67
2018-07-23T01:24:15.525Z,8.57
2018-07-23T01:26:19.909Z,9.97
2018-07-23T01:28:23.904Z,10.53
2018-07-23T01:30:27.896Z,9.87
2018-07-23T01:32:32.057Z,9.97
2018-07-23T01:34:36.009Z,10.13
2018-07-23T01:36:40.245Z,10.30
2018-07-23T01:38:44.847Z,9.70
2018-07-23T01:40:49.136Z,10.10
2018-07-23T01:42:53.178Z,9.67
2018-07-23T01:44:57.353Z,11.30
2018-07-23T01:47:01.794Z,12.43
2018-07-23T01:49:06.453Z,11.07
2018-07-23T01:51:10.461Z,12.57
2018-07-23T01:53:14.448Z,11.97
2018-07-23T01:55:18.741Z,12.10
2018-07-23T01:57:23.041Z,13.07
2018-07-23T01:59:27.340Z,14.80
2018-07-23T02:01:31.943Z,14.00
2018-07-23T02:03:36.089Z,14.10
2018-07-23T02:05:41.081Z,13.00
2018-07-23T02:07:45.381Z,13.47
2018-07-23T02:09:49.781Z,15.20
2018-07-23T02:11:54.665Z,13.57
2018-07-23T02:13:59.004Z,13.77
2018-07-23T02:16:03.378Z,13.80
2018-07-23T02:18:07.739Z,13.03
2018-07-23T02:20:12.579Z,14.07
2018-07-23T02:22:16.997Z,15.00
2018-07-23T02:24:21.616Z,15.20
2018-07-23T02:26:25.930Z,15.13
2018-07-23T02:28:30.372Z,12.77
2018-07-23T02:30:34.651Z,14.10
2018-07-23T02:32:39.055Z,14.43
2018-07-23T02:34:43.084Z,14.53
2018-07-23T02:36:47.284Z,15.40
2018-07-23T02:38:51.621Z,13.50
2018-07-23T02:40:56.217Z,14.87
2018-07-23T02:43:00.647Z,15.40
2018-07-23T02:45:05.205Z,12.93
2018-07-23T02:47:10.084Z,16.13
2018-07-23T02:49:14.498Z,13.70
2018-07-23T02:51:19.097Z,12.80
2018-07-23T02:53:23.743Z,13.83
2018-07-23T02:55:28.149Z,12.60
2018-07-23T02:57:32.629Z,13.20
2018-07-23T02:59:36.907Z,12.97
2018-07-23T03:01:41.389Z,13.50
2018-07-23T03:03:45.901Z,12.97
2018-07-23T03:05:50.131Z,13.97
2018-07-23T03:07:54.466Z,14.00
2018-07-23T03:09:59.057Z,15.30
2018-07-23T03:12:03.334Z,13.83
2018-07-23T03:14:07.604Z,14.60
2018-07-23T03:16:11.897Z,12.80
2018-07-23T03:18:16.483Z,12.63
2018-07-23T03:20:20.726Z,11.77
2018-07-23T03:22:25.333Z,12.17
2018-07-23T03:24:29.813Z,12.43
2018-07-23T03:26:34.082Z,12.63
2018-07-23T03:28:38.910Z,12.87
2018-07-23T03:30:43.223Z,13.50
2018-07-23T03:32:47.393Z,14.43
2018-07-23T03:34:51.674Z,12.87
2018-07-23T03:36:56.422Z,13.03
2018-07-23T03:39:01.503Z,13.10
2018-07-23T03:41:05.777Z,13.93
2018-07-23T03:43:10.963Z,13.20
2018-07-23T03:45:14.996Z,13.13
2018-07-23T03:47:19.241Z,13.90
2018-07-23T03:49:23.487Z,13.63
2018-07-23T03:51:28.073Z,14.40
2018-07-23T03:53:32.113Z,12.90
2018-07-23T03:55:36.229Z,14.27
2018-07-23T03:57:40.886Z,14.00
2018-07-23T03:59:45.580Z,14.63
2018-07-23T04:01:49.852Z,14.27
2018-07-23T04:03:54.526Z,12.60
2018-07-23T04:05:59.127Z,13.30
2018-07-23T04:08:10.439Z,14.50
2018-07-23T04:10:15.052Z,14.60
2018-07-23T04:12:19.705Z,12.90
2018-07-23T04:14:24.069Z,12.80
2018-07-23T04:16:28.717Z,13.03
2018-07-23T04:18:33.045Z,11.67
2018-07-23T04:20:37.293Z,13.80
2018-07-23T04:22:41.546Z,12.83
2018-07-23T04:24:45.865Z,12.27
2018-07-23T04:26:51.139Z,12.70
2018-07-23T04:28:55.484Z,12.67
2018-07-23T04:30:59.854Z,13.50
2018-07-23T04:33:04.585Z,12.60
2018-07-23T04:35:08.833Z,13.00
2018-07-23T04:37:13.433Z,12.73
2018-07-23T04:39:17.680Z,12.40
2018-07-23T04:41:21.997Z,11.50
2018-07-23T04:43:26.498Z,12.67
2018-07-23T04:45:31.081Z,12.27
2018-07-23T04:47:35.655Z,12.77
2018-07-23T04:49:40.216Z,10.93
2018-07-23T04:51:44.805Z,10.37
2018-07-23T04:53:49.062Z,11.80
2018-07-23T04:55:53.977Z,11.07
2018-07-23T04:57:58.586Z,10.70
2018-07-23T05:00:02.889Z,10.30
2018-07-23T05:02:07.254Z,10.30
2018-07-23T05:04:12.345Z,10.07
2018-07-23T05:06:16.613Z,9.20
2018-07-23T05:08:21.067Z,9.20
2018-07-23T05:10:25.509Z,8.30
2018-07-23T05:12:30.133Z,9.47
2018-07-23T05:14:34.749Z,8.60
2018-07-23T05:16:39.032Z,8.53
2018-07-23T05:18:43.315Z,6.80
2018-07-23T05:20:47.538Z,7.10
2018-07-23T05:22:51.856Z,6.80
2018-07-23T05:24:56.166Z,5.23
2018-07-23T05:27:00.475Z,5.70
2018-07-23T05:29:04.749Z,6.20
2018-07-23T05:31:08.757Z,5.90
2018-07-23T05:33:12.917Z,6.03
2018-07-23T05:35:17.041Z,6.13
2018-07-23T05:37:21.263Z,5.57
2018-07-23T05:39:25.871Z,5.87
2018-07-23T05:41:30.287Z,5.03
2018-07-23T05:43:34.533Z,5.87
2018-07-23T05:45:39.145Z,4.90
2018-07-23T05:47:43.741Z,3.93
2018-07-23T05:49:47.981Z,4.30
2018-07-23T05:51:52.217Z,4.27
2018-07-23T05:53:56.455Z,3.77
2018-07-23T05:56:00.974Z,3.40
2018-07-23T05:58:05.715Z,3.43
2018-07-23T06:00:10.015Z,3.33
2018-07-23T06:02:15.425Z,3.27
2018-07-23T06:04:19.994Z,3.00
2018-07-23T06:06:24.461Z,3.83
2018-07-23T06:08:28.917Z,3.30
2018-07-23T06:10:33.265Z,4.03
2018-07-23T06:12:37.870Z,3.87
2018-07-23T06:14:42.322Z,3.53
2018-07-23T06:16:46.585Z,3.00
2018-07-23T06:18:50.925Z,3.67
2018-07-23T06:20:55.178Z,3.27
2018-07-23T06:22:59.843Z,3.23
2018-07-23T06:25:04.418Z,3.07
2018-07-23T06:27:08.481Z,3.60
2018-07-23T06:29:12.652Z,3.30
2018-07-23T06:31:17.129Z,4.10
2018-07-23T06:33:22.027Z,3.60
2018-07-23T06:35:26.589Z,4.23
2018-07-23T06:37:30.709Z,3.80
2018-07-23T06:39:35.510Z,4.00
2018-07-23T06:41:40.945Z,3.40
2018-07-23T06:43:45.216Z,3.10
2018-07-23T06:45:49.777Z,3.87
2018-07-23T06:47:54.529Z,4.53
2018-07-23T06:49:58.856Z,4.07
2018-07-23T06:52:02.953Z,3.50
2018-07-23T06:54:07.420Z,3.17
2018-07-23T06:56:11.544Z,3.23
2018-07-23T06:58:15.806Z,3.30
2018-07-23T07:00:20.071Z,3.40
2018-07-23T07:02:23.781Z,3.37
2018-07-23T07:04:28.229Z,3.30
2018-07-23T07:06:32.508Z,3.77
2018-07-23T07:08:37.266Z,3.23
2018-07-23T07:10:41.252Z,3.67
2018-07-23T07:12:45.413Z,2.87
2018-07-23T07:14:50.048Z,3.07
2018-07-23T07:16:54.909Z,3.30
2018-07-23T07:18:59.175Z,3.50
2018-07-23T07:21:04.006Z,3.50
2018-07-23T07:23:08.446Z,3.30
2018-07-23T07:25:12.885Z,3.10
2018-07-23T07:27:17.573Z,3.10
2018-07-23T07:29:22.364Z,3.63
2018-07-23T07:31:26.606Z,3.10
2018-07-23T07:33:31.018Z,2.47
2018-07-23T07:35:35.277Z,3.10
2018-07-23T07:37:39.561Z,3.73
2018-07-23T07:39:43.805Z,3.30
2018-07-23T07:41:48.081Z,2.77
2018-07-23T07:43:52.705Z,3.03
2018-07-23T07:45:56.990Z,3.10
2018-07-23T07:48:01.325Z,2.90
2018-07-23T07:50:06.277Z,2.80
2018-07-23T07:52:10.530Z,3.10
2018-07-23T07:54:14.777Z,2.50
2018-07-23T07:56:19.010Z,2.47
2018-07-23T07:58:23.593Z,2.63
2018-07-23T08:00:28.301Z,2.30
2018-07-23T08:02:32.553Z,2.70
2018-07-23T08:04:36.823Z,2.60
2018-07-23T08:06:41.065Z,2.90
2018-07-23T08:08:45.549Z,2.67
2018-07-23T08:10:50.287Z,2.37
2018-07-23T08:12:55.681Z,2.27
2018-07-23T08:14:59.914Z,2.60
2018-07-23T08:17:04.147Z,2.93
2018-07-23T08:19:08.477Z,2.70
2018-07-23T08:21:12.933Z,1.90
2018-07-23T08:23:17.157Z,2.37
2018-07-23T08:25:21.393Z,2.70
2018-07-23T08:27:25.993Z,3.07
2018-07-23T08:29:30.963Z,2.90
2018-07-23T08:31:35.262Z,2.93
2018-07-23T08:33:39.686Z,3.30
2018-07-23T08:35:44.089Z,3.27
2018-07-23T08:37:51.334Z,2.90
2018-07-23T08:39:55.429Z,3.20
2018-07-23T08:42:00.079Z,2.90
2018-07-23T08:44:04.357Z,2.90
2018-07-23T08:46:08.957Z,2.60
2018-07-23T08:48:13.318Z,2.93
2018-07-23T08:50:17.909Z,3.00
2018-07-23T08:52:22.137Z,3.23
2018-07-23T08:54:26.705Z,2.83
2018-07-23T08:56:31.008Z,2.67
2018-07-23T08:58:35.304Z,3.07
2018-07-23T09:00:39.546Z,2.43
2018-07-23T09:02:43.517Z,3.10
2018-07-23T09:04:48.102Z,3.27
2018-07-23T09:06:52.491Z,3.37
2018-07-23T09:08:56.521Z,3.10
2018-07-23T09:11:00.745Z,3.23
2018-07-23T09:13:05.023Z,2.90
2018-07-23T09:15:09.915Z,3.30
2018-07-23T09:17:14.154Z,3.63
2018-07-23T09:19:18.589Z,3.27
2018-07-23T09:21:22.850Z,3.10
2018-07-23T09:23:27.061Z,2.97
2018-07-23T09:25:36.629Z,3.40
2018-07-23T09:27:40.961Z,3.53
2018-07-23T09:29:45.204Z,2.93
2018-07-23T09:31:49.813Z,3.60
2018-07-23T09:33:54.036Z,3.60
2018-07-23T09:35:58.589Z,3.33
2018-07-23T09:38:02.824Z,3.40
2018-07-23T09:40:07.415Z,3.90
2018-07-23T09:42:11.677Z,3.43
2018-07-23T09:44:15.957Z,3.47
2018-07-23T09:46:20.562Z,3.63
2018-07-23T09:48:24.797Z,3.17
2018-07-23T09:50:28.799Z,4.30
2018-07-23T09:52:32.928Z,4.77
2018-07-23T09:54:37.278Z,2.73
2018-07-23T09:56:41.836Z,3.30
2018-07-23T09:58:46.079Z,3.70
2018-07-23T10:00:54.482Z,4.00
2018-07-23T10:02:58.810Z,3.20
2018-07-23T10:05:03.305Z,3.60
2018-07-23T10:07:07.869Z,4.30
2018-07-23T10:09:12.392Z,4.17
2018-07-23T10:11:16.682Z,3.23
2018-07-23T10:13:21.039Z,3.13
2018-07-23T10:15:25.265Z,3.20
2018-07-23T10:17:29.663Z,3.03
2018-07-23T10:19:33.903Z,3.27
2018-07-23T10:21:38.125Z,4.00
2018-07-23T10:23:42.389Z,3.70
2018-07-23T10:25:46.685Z,3.33
2018-07-23T10:27:50.985Z,3.53
2018-07-23T10:29:55.244Z,4.00
2018-07-23T10:31:59.492Z,3.97
2018-07-23T10:34:03.726Z,2.70
2018-07-23T10:36:08.009Z,3.33
2018-07-23T10:38:11.977Z,3.40
2018-07-23T10:40:16.197Z,3.57
2018-07-23T10:42:21.192Z,3.10
2018-07-23T10:44:25.461Z,3.30
2018-07-23T10:46:30.038Z,3.50
2018-07-23T10:48:34.293Z,3.70
2018-07-23T10:50:38.514Z,3.27
2018-07-23T10:52:43.682Z,3.30
2018-07-23T10:54:47.929Z,3.77
2018-07-23T10:56:52.505Z,3.30
2018-07-23T10:58:56.821Z,3.80
2018-07-23T11:01:01.941Z,3.47
2018-07-23T11:03:05.924Z,3.30
2018-07-23T11:05:10.885Z,3.40
2018-07-23T11:07:15.380Z,3.57
2018-07-23T11:09:20.118Z,4.07
2018-07-23T11:11:24.134Z,3.13
2018-07-23T11:13:28.287Z,3.87
2018-07-23T11:15:32.505Z,3.20
2018-07-23T11:17:37.309Z,3.20
2018-07-23T11:19:41.590Z,3.63
2018-07-23T11:21:45.923Z,3.23
2018-07-23T11:23:50.122Z,3.40
2018-07-23T11:25:54.361Z,3.87
2018-07-23T11:27:58.709Z,3.10
2018-07-23T11:30:03.144Z,3.10
2018-07-23T11:32:07.463Z,3.43
2018-07-23T11:34:11.849Z,3.17
2018-07-23T11:36:16.107Z,3.20
2018-07-23T11:38:20.666Z,3.73
2018-07-23T11:40:25.231Z,3.43
2018-07-23T11:42:29.500Z,2.60
2018-07-23T11:44:33.653Z,3.03
2018-07-23T11:46:37.664Z,2.80
2018-07-23T11:48:41.769Z,3.23
2018-07-23T11:50:46.377Z,2.93
2018-07-23T11:52:50.796Z,2.90
2018-07-23T11:54:55.704Z,3.10
2018-07-23T11:57:00.590Z,2.60
2018-07-23T11:59:05.323Z,3.17
2018-07-23T12:01:09.773Z,3.90
2018-07-23T12:03:13.492Z,3.20
2018-07-23T12:05:17.614Z,2.83
2018-07-23T12:07:21.656Z,2.97
2018-07-23T12:09:25.757Z,2.70
2018-07-23T12:11:30.007Z,3.30
2018-07-23T12:13:34.856Z,3.07
2018-07-23T12:15:39.124Z,3.50
2018-07-23T12:17:43.695Z,3.53
2018-07-23T12:19:48.277Z,2.77
2018-07-23T12:21:52.546Z,3.30
2018-07-23T12:23:57.109Z,2.70
2018-07-23T12:26:01.386Z,3.00
2018-07-23T12:28:06.153Z,2.47
2018-07-23T12:30:10.135Z,2.97
2018-07-23T12:32:14.450Z,3.10
2018-07-23T12:34:18.905Z,2.87
2018-07-23T12:36:23.157Z,2.73
2018-07-23T12:38:27.369Z,2.80
2018-07-23T12:40:31.692Z,3.27
2018-07-23T12:42:37.498Z,3.22
2018-07-23T12:44:42.317Z,2.70
2018-07-23T12:46:47.117Z,3.10
2018-07-23T12:48:52.280Z,2.85
2018-07-23T12:50:57.216Z,2.70
2018-07-23T12:53:01.992Z,2.77
2018-07-23T12:55:07.669Z,2.40
2018-07-23T12:57:12.794Z,2.67
2018-07-23T12:59:17.604Z,2.70
2018-07-23T13:01:22.411Z,2.65
2018-07-23T13:03:27.232Z,3.12
2018-07-23T13:05:33.340Z,3.05
2018-07-23T13:07:38.147Z,2.80
2018-07-23T13:09:43.189Z,2.90
2018-07-23T13:11:47.997Z,2.50
2018-07-23T13:13:52.256Z,3.07
2018-07-23T13:15:56.505Z,2.80
2018-07-23T13:18:00.828Z,2.97
2018-07-23T13:20:05.234Z,3.33
2018-07-23T13:22:09.805Z,3.20
2018-07-23T13:24:14.731Z,3.30
2018-07-23T13:26:19.692Z,3.10
2018-07-23T13:28:23.993Z,2.90
2018-07-23T13:30:28.353Z,3.50
2018-07-23T13:32:32.530Z,3.10
2018-07-23T13:34:36.774Z,3.27
2018-07-23T13:36:41.089Z,3.27
2018-07-23T13:38:45.679Z,3.10
2018-07-23T13:40:49.997Z,2.90
2018-07-23T13:42:54.352Z,3.10
2018-07-23T13:44:58.651Z,2.93
2018-07-23T13:47:02.878Z,3.23
2018-07-23T13:49:07.505Z,2.97
2018-07-23T13:51:12.065Z,3.37
2018-07-23T13:53:16.317Z,3.00
2018-07-23T13:55:20.583Z,2.80
2018-07-23T13:57:24.612Z,3.17
2018-07-23T13:59:28.685Z,3.30
2018-07-23T14:01:33.146Z,3.13
2018-07-23T14:03:37.407Z,3.03
2018-07-23T14:05:41.657Z,2.90
2018-07-23T14:07:45.907Z,2.50
2018-07-23T14:09:50.997Z,2.70
2018-07-23T14:11:55.795Z,2.30
2018-07-23T14:14:00.354Z,2.63
2018-07-23T14:16:04.913Z,2.30
2018-07-23T14:18:09.161Z,2.00
2018-07-23T14:20:13.745Z,2.37
2018-07-23T14:22:18.119Z,2.77
2018-07-23T14:24:22.815Z,2.50
2018-07-23T14:26:27.096Z,2.10
2018-07-23T14:28:31.341Z,2.80
2018-07-23T14:30:35.913Z,2.57
2018-07-23T14:32:40.827Z,2.40
2018-07-23T14:34:45.605Z,2.80
2018-07-23T14:36:50.061Z,2.60
2018-07-23T14:38:54.858Z,2.55
2018-07-23T14:40:59.730Z,2.65
2018-07-23T14:43:04.514Z,2.90
2018-07-23T14:45:09.281Z,2.35
2018-07-23T14:47:14.069Z,2.42
2018-07-23T14:49:18.990Z,2.50
2018-07-23T14:51:23.556Z,2.33
2018-07-23T14:53:28.403Z,2.60
2018-07-23T14:55:33.226Z,2.75
2018-07-23T14:57:38.021Z,2.72
2018-07-23T14:59:43.324Z,2.62
2018-07-23T15:01:48.134Z,3.02
2018-07-23T15:03:52.977Z,2.60
2018-07-23T15:05:58.001Z,2.90
2018-07-23T15:08:03.196Z,2.90
2018-07-23T15:10:08.380Z,2.35
2018-07-23T15:12:13.558Z,2.83
2018-07-23T15:14:18.181Z,3.23
2018-07-23T15:16:22.989Z,3.00
2018-07-23T15:18:27.217Z,2.47
2018-07-23T15:20:31.472Z,2.90
2018-07-23T15:22:36.812Z,2.37
2018-07-23T15:24:41.386Z,2.50
2018-07-23T15:26:47.546Z,2.80
2018-07-23T15:28:52.361Z,2.40
2018-07-23T15:30:57.465Z,2.50
2018-07-23T15:33:02.560Z,2.60
2018-07-23T15:35:06.832Z,2.80
2018-07-23T15:37:11.877Z,2.90
2018-07-23T15:39:16.775Z,2.80
2018-07-23T15:41:21.921Z,3.05
2018-07-23T15:43:26.705Z,2.92
2018-07-23T15:45:31.657Z,2.87
2018-07-23T15:47:36.628Z,2.98
2018-07-23T15:49:41.681Z,2.62
2018-07-23T15:51:46.822Z,2.22
2018-07-23T15:53:51.613Z,2.80
2018-07-23T15:55:56.384Z,3.20
2018-07-23T15:58:01.168Z,2.85
2018-07-23T16:00:05.931Z,2.42
2018-07-23T16:02:10.365Z,2.92
2018-07-23T16:04:15.184Z,2.85
2018-07-23T16:06:20.302Z,2.80
2018-07-23T16:08:25.115Z,2.60
2018-07-23T16:10:30.230Z,3.15
2018-07-23T16:12:35.009Z,2.70
2018-07-23T16:14:40.101Z,2.70
2018-07-23T16:16:45.137Z,3.30
2018-07-23T16:18:50.321Z,3.12
2018-07-23T16:20:55.293Z,3.10
2018-07-23T16:23:00.437Z,3.12
2018-07-23T16:25:06.298Z,2.60
2018-07-23T16:27:11.301Z,2.98
2018-07-23T16:29:16.157Z,3.72
2018-07-23T16:31:21.045Z,3.05
2018-07-23T16:33:25.849Z,3.30
2018-07-23T16:35:30.991Z,3.47
2018-07-23T16:37:35.788Z,3.10
2018-07-23T16:39:40.570Z,3.75
2018-07-23T16:41:45.417Z,2.60
2018-07-23T16:43:50.625Z,2.87
2018-07-23T16:45:55.230Z,2.80
2018-07-23T16:47:59.789Z,3.00
2018-07-23T16:50:04.529Z,3.00
2018-07-23T16:52:08.745Z,3.40
2018-07-23T16:54:13.326Z,2.90
2018-07-23T16:56:17.795Z,3.13
2018-07-23T16:58:22.103Z,2.90
2018-07-23T17:00:26.872Z,4.00
2018-07-23T17:02:31.128Z,3.00
2018-07-23T17:04:35.705Z,3.30
2018-07-23T17:06:40.020Z,2.83
2018-07-23T17:08:44.413Z,2.63
2018-07-23T17:10:48.664Z,3.63
2018-07-23T17:12:53.682Z,2.87
2018-07-23T17:14:58.250Z,3.07
2018-07-23T17:17:02.292Z,3.50
2018-07-23T17:19:06.768Z,3.47
2018-07-23T17:21:11.329Z,2.80
2018-07-23T17:23:15.632Z,3.20
2018-07-23T17:25:19.917Z,3.37
2018-07-23T17:27:24.272Z,2.83
2018-07-23T17:29:28.857Z,4.80
2018-07-23T17:31:33.129Z,2.50
2018-07-23T17:33:37.705Z,2.67
2018-07-23T17:35:41.955Z,3.20
2018-07-23T17:37:46.240Z,3.20
2018-07-23T17:39:51.001Z,2.87
2018-07-23T17:41:55.265Z,3.00
2018-07-23T17:43:59.534Z,3.27
2018-07-23T17:46:03.825Z,2.73
2018-07-23T17:48:08.761Z,2.60
2018-07-23T17:50:13.356Z,3.23
2018-07-23T17:52:17.586Z,3.30
2018-07-23T17:54:21.888Z,2.90
2018-07-23T17:56:26.457Z,2.83
2018-07-23T17:58:31.120Z,2.70
2018-07-23T18:00:35.701Z,3.03
2018-07-23T18:02:40.475Z,3.30
2018-07-23T18:04:44.690Z,2.80
2018-07-23T18:06:49.000Z,2.87
2018-07-23T18:08:53.540Z,3.20
2018-07-23T18:10:57.703Z,2.80
2018-07-23T18:13:02.459Z,3.33
2018-07-23T18:15:06.902Z,3.30
2018-07-23T18:17:11.005Z,2.47
2018-07-23T18:19:15.585Z,2.80
2018-07-23T18:21:19.825Z,3.00
2018-07-23T18:23:24.126Z,2.73
2018-07-23T18:25:28.665Z,3.23
2018-07-23T18:27:33.265Z,2.50
2018-07-23T18:29:37.574Z,3.73
2018-07-23T18:31:41.803Z,2.70
2018-07-23T18:33:46.066Z,3.17
2018-07-23T18:35:50.521Z,2.97
2018-07-23T18:37:54.786Z,2.80
2018-07-23T18:39:58.918Z,3.17
2018-07-23T18:42:03.174Z,2.83
2018-07-23T18:44:08.509Z,2.50
2018-07-23T18:46:13.218Z,2.63
2018-07-23T18:49:33.893Z,2.60
2018-07-23T18:51:48.549Z,2.63
2018-07-23T18:53:52.791Z,2.93
2018-07-23T18:55:57.710Z,2.50
2018-07-23T18:58:01.679Z,2.37
2018-07-23T19:00:05.697Z,2.40
2018-07-23T19:02:11.583Z,2.50
2018-07-23T19:04:16.401Z,2.70
2018-07-23T19:06:20.702Z,2.30
2018-07-23T19:08:25.064Z,2.60
2018-07-23T19:10:29.518Z,3.00
2018-07-23T19:12:34.466Z,2.70
2018-07-23T19:14:39.037Z,2.80
2018-07-23T19:16:43.608Z,2.60
2018-07-23T19:18:48.173Z,2.60
2018-07-23T19:20:52.789Z,2.57
2018-07-23T19:22:57.037Z,2.30
2018-07-23T19:25:01.083Z,2.30
2018-07-23T19:27:05.842Z,3.17
2018-07-23T19:29:10.314Z,2.37
2018-07-23T19:31:14.740Z,2.80
2018-07-23T19:33:19.066Z,2.40
2018-07-23T19:35:23.335Z,3.10
2018-07-23T19:37:28.365Z,2.50
2018-07-23T19:39:32.971Z,2.50
2018-07-23T19:41:37.756Z,2.60
2018-07-23T19:43:42.213Z,2.70
2018-07-23T19:45:46.494Z,2.60
2018-07-23T19:47:50.861Z,2.37
2018-07-23T19:49:55.318Z,2.67
2018-07-23T19:51:59.530Z,2.57
2018-07-23T19:54:04.036Z,2.70
2018-07-23T19:56:09.149Z,2.43
2018-07-23T19:58:13.245Z,2.43
2018-07-23T20:00:18.226Z,2.80
2018-07-23T20:02:22.516Z,2.67
2018-07-23T20:04:27.133Z,2.33
2018-07-23T20:06:31.722Z,2.87
2018-07-23T20:08:35.985Z,2.60
2018-07-23T20:10:40.232Z,2.60
2018-07-23T20:12:44.513Z,2.60
2018-07-23T20:14:49.115Z,2.60
2018-07-23T20:16:53.365Z,2.23
2018-07-23T20:18:57.638Z,2.40
2018-07-23T20:21:02.197Z,2.40
2018-07-23T20:23:06.480Z,2.57
2018-07-23T20:25:10.818Z,2.90
2018-07-23T20:27:15.089Z,2.80
2018-07-23T20:29:19.423Z,2.80
2018-07-23T20:31:23.690Z,2.63
2018-07-23T20:33:27.952Z,3.00
2018-07-23T20:35:32.180Z,2.63
2018-07-23T20:37:36.809Z,2.83
2018-07-23T20:39:41.173Z,3.03
2018-07-23T20:41:45.614Z,3.07
2018-07-23T20:43:49.766Z,3.03
2018-07-23T20:45:54.328Z,2.93
2018-07-23T20:47:59.341Z,3.03
2018-07-23T20:50:03.955Z,2.90
2018-07-23T20:52:08.204Z,3.17
2018-07-23T20:54:12.773Z,2.93
2018-07-23T20:56:17.037Z,3.53
2018-07-23T20:58:21.609Z,3.17
2018-07-23T21:00:26.032Z,3.30
2018-07-23T21:02:30.773Z,4.30
2018-07-23T21:04:34.804Z,6.50
2018-07-23T21:06:38.763Z,5.33
2018-07-23T21:08:42.818Z,4.73
2018-07-23T21:10:46.990Z,3.63
2018-07-23T21:12:51.569Z,3.90
2018-07-23T21:14:56.161Z,3.53
2018-07-23T21:17:00.766Z,4.20
2018-07-23T21:19:05.202Z,4.47
2018-07-23T21:21:09.781Z,3.87
2018-07-23T21:23:14.689Z,3.40
2018-07-23T21:25:18.987Z,3.50
2018-07-23T21:27:23.705Z,3.97
2018-07-23T21:29:27.974Z,3.33
2018-07-23T21:31:32.077Z,3.93
2018-07-23T21:33:36.528Z,4.20
2018-07-23T21:35:40.791Z,3.33
2018-07-23T21:37:45.434Z,3.63
2018-07-23T21:39:49.659Z,3.93
2018-07-23T21:41:53.977Z,3.70
2018-07-23T21:43:58.222Z,4.10
2018-07-23T21:46:02.449Z,3.87
2018-07-23T21:48:09.161Z,3.77
2018-07-23T21:50:13.356Z,4.30
2018-07-23T21:52:17.822Z,4.27
2018-07-23T21:54:22.540Z,4.70
2018-07-23T21:56:26.955Z,4.60
2018-07-23T21:58:31.253Z,4.60
2018-07-23T22:00:37.828Z,4.67
2018-07-23T22:02:42.255Z,3.97
2018-07-23T22:04:46.835Z,4.87
2018-07-23T22:06:51.088Z,5.07
2018-07-23T22:08:56.293Z,4.70
2018-07-23T22:11:00.874Z,4.60
2018-07-23T22:13:05.945Z,3.73
2018-07-23T22:15:11.304Z,3.77
2018-07-23T22:17:15.757Z,5.13
2018-07-23T22:19:20.313Z,3.67
2018-07-23T22:21:24.569Z,4.30
2018-07-23T22:23:29.175Z,4.50
2018-07-23T22:25:34.001Z,4.30
2018-07-23T22:27:38.757Z,4.60
2018-07-23T22:29:43.307Z,4.60
2018-07-23T22:31:47.711Z,5.20
2018-07-23T22:33:52.074Z,4.50
2018-07-23T22:35:56.397Z,5.10
2018-07-23T22:38:00.601Z,4.37
2018-07-23T22:40:05.253Z,4.70
2018-07-23T22:42:09.555Z,5.10
2018-07-23T22:44:14.016Z,5.37
2018-07-23T22:46:18.237Z,4.83
2018-07-23T22:48:22.821Z,4.87
2018-07-23T22:50:27.065Z,4.70
2018-07-23T22:52:31.317Z,5.03
2018-07-23T22:54:35.939Z,4.70
2018-07-23T22:56:39.854Z,4.10
2018-07-23T22:58:44.200Z,4.67
2018-07-23T23:00:48.493Z,4.00
2018-07-23T23:02:53.125Z,4.50
2018-07-23T23:04:57.137Z,4.43
2018-07-23T23:07:01.686Z,4.53
2018-07-23T23:09:08.005Z,5.80
2018-07-23T23:11:12.248Z,4.70
2018-07-23T23:13:16.806Z,5.30
2018-07-23T23:15:21.098Z,5.80
2018-07-23T23:17:25.381Z,6.77
2018-07-23T23:19:30.234Z,9.33
2018-07-23T23:21:34.583Z,6.90
2018-07-23T23:23:38.813Z,6.93
2018-07-23T23:25:43.141Z,7.00
2018-07-23T23:27:49.019Z,7.20
2018-07-23T23:29:53.522Z,6.43
2018-07-23T23:31:57.729Z,7.10
2018-07-23T23:34:01.985Z,5.97
2018-07-23T23:36:06.225Z,5.57
2018-07-23T23:38:10.461Z,5.47
2018-07-23T23:40:15.053Z,5.57
2018-07-23T23:42:19.313Z,4.83
2018-07-23T23:44:23.614Z,4.50
2018-07-23T23:46:27.918Z,4.60
2018-07-23T23:48:32.493Z,5.53
2018-07-23T23:50:37.058Z,5.10
2018-07-23T23:52:41.036Z,4.67
2018-07-23T23:54:45.297Z,4.33
2018-07-23T23:56:49.538Z,4.80
2018-07-23T23:58:54.277Z,5.13
